createdAt,value
2018-12-15T00:02:09.074Z,34.27
2018-12-15T00:04:37.395Z,33.80
2018-12-15T00:07:05.662Z,37.70
2018-12-15T00:09:33.880Z,36.03
2018-12-15T00:12:02.219Z,40.78
2018-12-15T00:14:30.429Z,36.03
2018-12-15T00:17:05.552Z,36.03
2018-12-15T00:19:28.919Z,38.53
2018-12-15T00:21:57.147Z,37.15
2018-12-15T00:24:25.367Z,36.63
2018-12-15T00:26:53.514Z,31.97
2018-12-15T00:29:21.797Z,32.90
2018-12-15T00:31:50.150Z,39.85
2018-12-15T00:34:18.507Z,35.43
2018-12-15T00:36:46.731Z,37.83
2018-12-15T00:39:14.928Z,34.78
2018-12-15T00:41:43.199Z,33.02
2018-12-15T00:44:11.336Z,34.18
2018-12-15T00:46:39.651Z,31.70
2018-12-15T00:49:07.924Z,30.97
2018-12-15T00:51:36.182Z,33.95
2018-12-15T00:54:04.512Z,27.62
2018-12-15T00:56:32.815Z,29.00
2018-12-15T00:59:01.111Z,28.27
2018-12-15T01:01:29.368Z,26.82
2018-12-15T01:03:57.660Z,29.82
2018-12-15T01:06:26.124Z,29.57
2018-12-15T01:08:54.331Z,23.18
2018-12-15T01:11:22.584Z,26.37
2018-12-15T01:13:50.834Z,30.02
2018-12-15T01:23:17.316Z,29.27
2018-12-15T01:25:45.600Z,26.87
2018-12-15T01:28:13.850Z,28.45
2018-12-15T01:30:42.090Z,30.92
2018-12-15T01:33:10.322Z,27.50
2018-12-15T01:35:38.617Z,28.67
2018-12-15T01:38:06.980Z,25.60
2018-12-15T01:40:35.257Z,24.40
2018-12-15T01:43:03.540Z,24.98
2018-12-15T01:45:31.888Z,23.10
2018-12-15T01:48:00.192Z,27.22
2018-12-15T01:50:28.381Z,25.32
2018-12-15T01:52:56.565Z,25.72
2018-12-15T01:55:24.835Z,23.47
2018-12-15T01:57:53.228Z,24.00
2018-12-15T02:00:21.730Z,24.43
2018-12-15T02:02:49.936Z,22.15
2018-12-15T02:05:18.251Z,18.20
2018-12-15T02:07:46.493Z,23.22
2018-12-15T02:10:14.792Z,19.15
2018-12-15T02:12:43.116Z,24.37
2018-12-15T02:15:11.298Z,19.23
2018-12-15T02:17:39.524Z,20.43
2018-12-15T02:20:07.792Z,20.27
2018-12-15T02:22:36.013Z,21.23
2018-12-15T02:25:04.394Z,20.75
2018-12-15T02:27:32.655Z,21.42
2018-12-15T02:30:00.967Z,18.52
2018-12-15T02:32:29.233Z,21.65
2018-12-15T02:34:57.555Z,20.85
2018-12-15T02:37:25.901Z,19.20
2018-12-15T02:39:54.112Z,19.87
2018-12-15T02:42:22.388Z,23.95
2018-12-15T02:44:50.588Z,19.35
2018-12-15T02:47:18.828Z,24.02
2018-12-15T02:49:47.172Z,23.95
2018-12-15T02:52:15.470Z,20.48
2018-12-15T02:54:43.719Z,22.15
2018-12-15T02:57:11.957Z,20.02
2018-12-15T02:59:40.220Z,18.00
2018-12-15T03:02:08.608Z,20.35
2018-12-15T03:04:36.959Z,22.77
2018-12-15T03:07:05.252Z,18.82
2018-12-15T03:09:33.609Z,21.12
2018-12-15T03:12:02.838Z,20.90
2018-12-15T03:14:31.093Z,19.67
2018-12-15T03:17:04.911Z,20.72
2018-12-15T03:19:33.246Z,21.33
2018-12-15T03:22:01.510Z,23.25
2018-12-15T03:24:29.886Z,22.90
2018-12-15T03:26:58.191Z,21.23
2018-12-15T03:29:26.446Z,23.10
2018-12-15T03:31:54.718Z,22.20
2018-12-15T03:34:22.973Z,24.65
2018-12-15T03:36:51.233Z,21.23
2018-12-15T03:39:19.536Z,20.70
2018-12-15T03:41:48.060Z,24.15
2018-12-15T03:44:16.272Z,22.22
2018-12-15T03:46:44.582Z,23.45
2018-12-15T03:49:12.790Z,21.57
2018-12-15T03:51:41.162Z,25.37
2018-12-15T03:54:09.331Z,26.17
2018-12-15T03:56:37.568Z,24.92
2018-12-15T03:59:05.992Z,22.48
2018-12-15T04:01:34.293Z,20.85
2018-12-15T04:04:02.540Z,24.27
2018-12-15T04:06:30.738Z,28.27
2018-12-15T04:08:59.000Z,22.32
2018-12-15T04:11:27.337Z,20.52
2018-12-15T04:13:55.644Z,24.12
2018-12-15T04:16:23.940Z,21.12
2018-12-15T04:18:52.120Z,25.35
2018-12-15T04:21:20.396Z,27.13
2018-12-15T04:23:48.600Z,21.12
2018-12-15T04:26:16.923Z,23.42
2018-12-15T04:28:45.163Z,27.00
2018-12-15T04:31:13.373Z,25.12
2018-12-15T04:33:41.766Z,22.75
2018-12-15T04:36:14.935Z,28.77
2018-12-15T04:38:43.196Z,28.15
2018-12-15T04:41:11.564Z,31.75
2018-12-15T04:43:40.115Z,25.43
2018-12-15T04:46:08.565Z,30.97
2018-12-15T04:48:37.123Z,27.05
2018-12-15T04:51:05.391Z,24.35
2018-12-15T04:53:33.615Z,29.72
2018-12-15T04:56:01.919Z,25.88
2018-12-15T04:58:30.120Z,25.60
2018-12-15T05:00:58.350Z,26.52
2018-12-15T05:03:26.615Z,26.95
2018-12-15T05:05:54.843Z,26.20
2018-12-15T05:08:23.152Z,31.30
2018-12-15T05:10:51.444Z,33.80
2018-12-15T05:13:19.677Z,30.20
2018-12-15T05:15:47.993Z,35.00
2018-12-15T05:18:18.239Z,31.07
2018-12-15T05:20:46.524Z,30.60
2018-12-15T05:23:14.703Z,28.30
2018-12-15T05:25:42.922Z,27.27
2018-12-15T05:28:11.474Z,30.62
2018-12-15T05:30:39.750Z,29.32
2018-12-15T05:33:08.060Z,29.18
2018-12-15T05:35:36.329Z,28.52
2018-12-15T05:38:04.611Z,30.10
2018-12-15T05:40:32.831Z,35.28
2018-12-15T05:43:01.140Z,33.75
2018-12-15T05:45:29.246Z,29.37
2018-12-15T05:47:57.463Z,32.40
2018-12-15T05:50:25.903Z,35.75
2018-12-15T05:52:54.165Z,35.68
2018-12-15T05:55:22.472Z,36.63
2018-12-15T05:57:50.737Z,34.83
2018-12-15T06:00:19.041Z,36.15
2018-12-15T06:02:47.430Z,33.40
2018-12-15T06:05:15.710Z,36.08
2018-12-15T06:07:44.073Z,33.90
2018-12-15T06:10:12.417Z,34.15
2018-12-15T06:12:40.686Z,34.38
2018-12-15T06:15:08.866Z,31.48
2018-12-15T06:17:37.103Z,34.67
2018-12-15T06:20:05.704Z,35.48
2018-12-15T06:22:34.065Z,39.42
2018-12-15T06:25:02.311Z,37.53
2018-12-15T06:27:30.550Z,32.42
2018-12-15T06:29:58.746Z,35.85
2018-12-15T06:32:26.968Z,38.45
2018-12-15T06:34:55.169Z,37.48
2018-12-15T06:37:23.391Z,35.03
2018-12-15T06:39:51.618Z,38.65
2018-12-15T06:42:19.948Z,36.65
2018-12-15T06:44:48.236Z,36.60
2018-12-15T06:47:16.527Z,38.23
2018-12-15T06:49:44.783Z,37.63
2018-12-15T06:52:13.051Z,39.58
2018-12-15T06:54:41.280Z,40.12
2018-12-15T06:57:09.719Z,37.40
2018-12-15T06:59:37.995Z,39.45
2018-12-15T07:02:06.299Z,37.75
2018-12-15T07:04:34.431Z,47.65
2018-12-15T07:07:02.748Z,41.75
2018-12-15T07:09:30.987Z,42.95
2018-12-15T07:11:59.439Z,39.70
2018-12-15T07:14:27.812Z,40.43
2018-12-15T07:16:56.071Z,41.25
2018-12-15T07:19:24.298Z,39.88
2018-12-15T07:21:52.525Z,42.05
2018-12-15T07:24:20.779Z,45.38
2018-12-15T07:26:49.003Z,46.68
2018-12-15T07:29:17.221Z,41.77
2018-12-15T07:31:45.434Z,41.50
2018-12-15T07:34:13.695Z,40.28
2018-12-15T07:36:41.995Z,38.20
2018-12-15T07:39:10.235Z,42.85
2018-12-15T07:41:38.511Z,41.55
2018-12-15T07:44:06.717Z,41.13
2018-12-15T07:46:34.963Z,40.65
2018-12-15T07:49:03.217Z,46.42
2018-12-15T07:51:31.488Z,48.98
2018-12-15T07:53:59.851Z,40.80
2018-12-15T07:56:28.146Z,45.35
2018-12-15T07:58:56.384Z,38.33
2018-12-15T08:01:24.791Z,39.40
2018-12-15T08:03:52.885Z,41.77
2018-12-15T08:06:21.119Z,43.02
2018-12-15T08:08:49.331Z,46.35
2018-12-15T08:11:22.939Z,41.95
2018-12-15T08:13:55.542Z,41.37
2018-12-15T08:16:24.348Z,43.25
2018-12-15T08:18:58.087Z,45.73
2018-12-15T08:21:22.855Z,44.40
2018-12-15T08:23:51.155Z,40.52
2018-12-15T08:26:19.393Z,39.78
2018-12-15T08:28:47.724Z,43.92
2018-12-15T08:31:15.973Z,44.10
2018-12-15T08:33:44.165Z,50.70
2018-12-15T08:36:12.427Z,51.48
2018-12-15T08:38:40.751Z,48.40
2018-12-15T08:41:09.087Z,46.08
2018-12-15T08:43:37.212Z,45.40
2018-12-15T08:46:07.404Z,48.45
2018-12-15T08:48:35.691Z,52.17
2018-12-15T08:51:03.953Z,62.15
2018-12-15T08:53:32.194Z,64.32
2018-12-15T08:56:00.427Z,53.73
2018-12-15T08:58:28.645Z,56.18
2018-12-15T09:00:56.996Z,58.60
2018-12-15T09:03:25.423Z,56.95
2018-12-15T09:05:53.768Z,56.75
2018-12-15T09:08:22.123Z,57.35
2018-12-15T09:10:50.374Z,55.03
2018-12-15T09:13:18.789Z,50.80
2018-12-15T09:15:47.066Z,53.75
2018-12-15T09:18:15.334Z,52.48
2018-12-15T09:20:43.624Z,53.68
2018-12-15T09:23:11.860Z,58.33
2018-12-15T09:25:40.212Z,59.93
2018-12-15T09:28:08.443Z,61.23
2018-12-15T09:30:36.681Z,65.37
2018-12-15T09:33:04.951Z,59.63
2018-12-15T09:35:33.240Z,58.42
2018-12-15T09:38:01.438Z,61.05
2018-12-15T09:40:29.767Z,54.70
2018-12-15T09:42:58.060Z,64.22
2018-12-15T09:45:26.423Z,57.20
2018-12-15T09:47:54.714Z,58.25
2018-12-15T09:50:23.017Z,66.17
2018-12-15T09:52:51.254Z,65.95
2018-12-15T09:55:19.542Z,67.78
2018-12-15T09:57:47.903Z,55.88
2018-12-15T10:00:16.143Z,56.35
2018-12-15T10:02:44.532Z,60.95
2018-12-15T10:05:12.826Z,60.00
2018-12-15T10:07:41.159Z,65.10
2018-12-15T10:10:09.584Z,64.77
2018-12-15T10:12:37.743Z,67.58
2018-12-15T10:15:06.225Z,58.58
2018-12-15T10:17:34.450Z,53.90
2018-12-15T10:20:02.703Z,54.93
2018-12-15T10:22:30.931Z,66.75
2018-12-15T10:24:59.135Z,64.10
2018-12-15T10:27:27.322Z,52.90
2018-12-15T10:30:01.220Z,54.03
2018-12-15T10:33:01.173Z,62.35
2018-12-15T10:35:29.459Z,60.28
2018-12-15T10:37:57.671Z,59.27
2018-12-15T10:40:25.968Z,55.05
2018-12-15T10:42:54.156Z,67.22
2018-12-15T10:45:23.029Z,64.67
2018-12-15T10:47:51.234Z,57.55
2018-12-15T10:50:19.562Z,60.90
2018-12-15T10:52:47.904Z,61.73
2018-12-15T10:55:16.265Z,62.88
2018-12-15T10:57:44.596Z,62.60
2018-12-15T11:00:18.958Z,67.15
2018-12-15T11:02:47.213Z,61.50
2018-12-15T11:05:15.465Z,59.40
2018-12-15T11:07:43.694Z,59.27
2018-12-15T11:10:12.137Z,55.40
2018-12-15T11:12:40.386Z,62.23
2018-12-15T11:15:09.027Z,63.50
2018-12-15T11:17:37.211Z,56.95
2018-12-15T11:20:06.129Z,59.33
2018-12-15T11:22:34.381Z,50.15
2018-12-15T11:25:02.644Z,48.80
2018-12-15T11:27:30.891Z,51.05
2018-12-15T11:29:59.212Z,61.63
2018-12-15T11:32:27.415Z,65.90
2018-12-15T11:34:55.636Z,54.15
2018-12-15T11:37:24.143Z,56.90
2018-12-15T11:39:52.367Z,55.63
2018-12-15T11:42:20.627Z,51.13
2018-12-15T11:44:48.839Z,50.98
2018-12-15T11:47:16.998Z,48.90
2018-12-15T11:49:45.195Z,52.33
2018-12-15T11:52:13.475Z,46.50
2018-12-15T11:54:41.718Z,51.08
2018-12-15T11:57:09.954Z,52.17
2018-12-15T11:59:38.176Z,54.45
2018-12-15T12:02:06.454Z,55.03
2018-12-15T12:04:34.723Z,51.75
2018-12-15T12:07:02.975Z,51.60
2018-12-15T12:09:31.215Z,47.20
2018-12-15T12:11:59.438Z,45.55
2018-12-15T12:14:27.790Z,49.55
2018-12-15T12:16:55.994Z,55.60
2018-12-15T12:19:50.149Z,60.23
2018-12-15T12:22:15.231Z,53.92
2018-12-15T12:24:43.532Z,53.30
2018-12-15T12:27:11.723Z,49.03
2018-12-15T12:29:40.091Z,54.00
2018-12-15T12:32:08.331Z,53.48
2018-12-15T12:34:36.660Z,59.03
2018-12-15T12:37:05.023Z,48.08
2018-12-15T12:39:33.271Z,41.68
2018-12-15T12:42:01.531Z,54.10
2018-12-15T12:44:29.761Z,43.13
2018-12-15T12:46:58.104Z,49.38
2018-12-15T12:49:26.331Z,47.33
2018-12-15T12:51:54.595Z,53.63
2018-12-15T12:54:23.195Z,40.67
2018-12-15T12:56:51.416Z,48.98
2018-12-15T12:59:19.685Z,47.38
2018-12-15T13:01:47.933Z,52.62
2018-12-15T13:04:16.222Z,45.70
2018-12-15T13:06:44.564Z,50.38
2018-12-15T13:09:12.863Z,47.53
2018-12-15T13:11:41.075Z,43.17
2018-12-15T13:14:09.267Z,41.90
2018-12-15T13:16:37.503Z,47.30
2018-12-15T13:19:05.642Z,41.58
2018-12-15T13:21:33.861Z,44.67
2018-12-15T13:24:02.115Z,46.42
2018-12-15T13:26:30.332Z,49.80
2018-12-15T13:28:58.561Z,43.95
2018-12-15T13:31:26.938Z,52.53
2018-12-15T13:33:55.142Z,51.60
2018-12-15T13:36:23.423Z,52.48
2018-12-15T13:38:51.649Z,49.25
2018-12-15T13:41:19.886Z,51.20
2018-12-15T13:43:48.082Z,43.95
2018-12-15T13:46:16.339Z,47.50
2018-12-15T13:48:44.617Z,45.92
2018-12-15T13:51:12.872Z,48.38
2018-12-15T13:53:41.150Z,44.25
2018-12-15T13:56:09.529Z,42.78
2018-12-15T13:58:37.851Z,52.75
2018-12-15T14:01:06.177Z,48.28
2018-12-15T14:03:34.411Z,43.23
2018-12-15T14:06:02.812Z,49.08
2018-12-15T14:08:31.020Z,51.85
2018-12-15T14:10:59.295Z,44.15
2018-12-15T14:13:27.671Z,48.80
2018-12-15T14:15:55.907Z,50.55
2018-12-15T14:18:24.167Z,50.95
2018-12-15T14:20:52.357Z,46.53
2018-12-15T14:23:20.637Z,50.35
2018-12-15T14:25:48.940Z,49.83
2018-12-15T14:28:17.155Z,49.75
2018-12-15T14:30:45.342Z,50.12
2018-12-15T14:33:13.595Z,53.83
2018-12-15T14:35:41.853Z,48.35
2018-12-15T14:38:10.071Z,49.30
2018-12-15T14:40:38.342Z,51.35
2018-12-15T14:43:06.490Z,47.75
2018-12-15T14:45:34.730Z,44.85
2018-12-15T14:48:03.035Z,49.15
2018-12-15T14:50:31.233Z,45.03
2018-12-15T14:52:59.503Z,49.03
2018-12-15T14:55:27.865Z,51.15
2018-12-15T14:57:56.116Z,51.40
2018-12-15T15:00:24.449Z,50.35
2018-12-15T15:02:52.874Z,46.88
2018-12-15T15:05:21.123Z,45.00
2018-12-15T15:07:49.344Z,51.55
2018-12-15T15:10:17.538Z,56.10
2018-12-15T15:12:45.782Z,49.80
2018-12-15T15:15:14.042Z,49.00
2018-12-15T15:17:42.351Z,49.85
2018-12-15T15:20:10.894Z,55.33
2018-12-15T15:22:39.101Z,49.65
2018-12-15T15:25:07.469Z,55.70
2018-12-15T15:27:35.671Z,54.25
2018-12-15T15:30:04.969Z,52.50
2018-12-15T15:32:33.386Z,47.05
2018-12-15T15:35:01.751Z,52.73
2018-12-15T15:37:29.951Z,59.70
2018-12-15T15:39:58.112Z,55.08
2018-12-15T15:42:26.340Z,56.73
2018-12-15T15:44:54.625Z,53.55
2018-12-15T15:47:22.912Z,52.98
2018-12-15T15:49:51.166Z,50.23
2018-12-15T15:52:19.405Z,52.60
2018-12-15T15:54:47.633Z,47.05
2018-12-15T15:57:16.009Z,56.68
2018-12-15T15:59:44.243Z,56.75
2018-12-15T16:02:12.574Z,55.45
2018-12-15T16:04:40.880Z,47.70
2018-12-15T16:07:09.172Z,51.90
2018-12-15T16:09:37.501Z,50.40
2018-12-15T16:12:05.745Z,52.90
2018-12-15T16:14:33.991Z,53.20
2018-12-15T16:17:02.283Z,51.68
2018-12-15T16:19:30.484Z,51.33
2018-12-15T16:21:58.701Z,56.00
2018-12-15T16:24:26.921Z,56.15
2018-12-15T16:26:55.191Z,51.20
2018-12-15T16:29:23.447Z,57.20
2018-12-15T16:31:51.703Z,53.20
2018-12-15T16:34:20.036Z,52.78
2018-12-15T16:36:48.269Z,50.03
2018-12-15T16:39:16.451Z,48.92
2018-12-15T16:41:44.691Z,56.65
2018-12-15T16:44:13.007Z,57.43
2018-12-15T16:46:41.256Z,62.48
2018-12-15T16:49:09.499Z,52.67
2018-12-15T16:51:37.804Z,49.83
2018-12-15T16:54:06.076Z,48.28
2018-12-15T16:56:34.360Z,48.28
2018-12-15T16:59:02.550Z,60.12
2018-12-15T17:01:30.717Z,56.02
2018-12-15T17:03:58.995Z,58.45
2018-12-15T17:06:27.211Z,53.87
2018-12-15T17:08:55.582Z,52.58
2018-12-15T17:11:23.881Z,66.30
2018-12-15T17:13:52.293Z,63.52
2018-12-15T17:16:20.671Z,53.58
2018-12-15T17:18:48.972Z,49.67
2018-12-15T17:21:17.256Z,53.20
2018-12-15T17:23:45.509Z,57.25
2018-12-15T17:26:13.736Z,60.25
2018-12-15T17:28:42.098Z,61.42
2018-12-15T17:31:10.375Z,51.90
2018-12-15T17:33:38.628Z,59.67
2018-12-15T17:36:06.987Z,56.98
2018-12-15T17:38:35.219Z,59.93
2018-12-15T17:41:03.397Z,55.78
2018-12-15T17:43:31.612Z,53.70
2018-12-15T17:45:59.819Z,50.03
2018-12-15T17:48:28.014Z,60.23
2018-12-15T17:50:56.318Z,64.60
2018-12-15T17:53:24.782Z,68.65
2018-12-15T17:55:53.040Z,60.00
2018-12-15T17:58:21.365Z,67.00
2018-12-15T18:00:49.515Z,67.20
2018-12-15T18:03:17.654Z,69.00
2018-12-15T18:05:46.029Z,70.28
2018-12-15T18:08:14.240Z,63.42
2018-12-15T18:10:42.492Z,61.60
2018-12-15T18:13:10.715Z,73.57
2018-12-15T18:15:38.991Z,55.28
2018-12-15T18:18:07.227Z,71.28
2018-12-15T18:20:36.096Z,65.10
2018-12-15T18:23:04.548Z,67.60
2018-12-15T18:25:32.787Z,65.42
2018-12-15T18:28:01.148Z,62.50
2018-12-15T18:30:29.471Z,63.70
2018-12-15T18:32:57.759Z,67.30
2018-12-15T18:35:26.106Z,70.15
2018-12-15T18:37:54.606Z,71.53
2018-12-15T18:40:25.459Z,70.30
2018-12-15T18:42:53.780Z,79.55
2018-12-15T18:45:21.965Z,67.15
2018-12-15T18:47:50.193Z,72.92
2018-12-15T18:50:18.350Z,74.60
2018-12-15T18:52:46.720Z,74.62
2018-12-15T18:55:14.949Z,61.60
2018-12-15T18:57:43.152Z,69.82
2018-12-15T19:00:12.072Z,67.92
2018-12-15T19:02:40.290Z,59.23
2018-12-15T19:05:09.079Z,60.38
2018-12-15T19:07:37.421Z,67.70
2018-12-15T19:10:06.405Z,64.47
2018-12-15T19:12:34.666Z,66.12
2018-12-15T19:15:02.891Z,66.17
2018-12-15T19:17:31.163Z,65.00
2018-12-15T19:19:59.395Z,70.25
2018-12-15T19:22:27.673Z,58.75
2018-12-15T19:24:56.667Z,60.60
2018-12-15T19:27:24.961Z,68.02
2018-12-15T19:29:53.192Z,72.42
2018-12-15T19:32:21.478Z,71.07
2018-12-15T19:34:52.562Z,66.90
2018-12-15T19:37:19.907Z,66.67
2018-12-15T19:39:48.384Z,67.17
2018-12-15T19:42:16.639Z,67.80
2018-12-15T19:44:44.884Z,61.00
2018-12-15T19:47:13.341Z,61.77
2018-12-15T19:49:41.625Z,70.08
2018-12-15T19:52:09.844Z,62.85
2018-12-15T19:54:38.212Z,60.70
2018-12-15T19:57:06.646Z,63.60
2018-12-15T19:59:34.819Z,58.13
2018-12-15T20:02:03.057Z,62.05
2018-12-15T20:04:31.486Z,60.23
2018-12-15T20:06:59.719Z,59.40
2018-12-15T20:09:27.884Z,61.63
2018-12-15T20:11:56.131Z,68.52
2018-12-15T20:14:24.604Z,67.97
2018-12-15T20:16:52.967Z,62.33
2018-12-15T20:19:21.331Z,61.00
2018-12-15T20:21:49.627Z,62.17
2018-12-15T20:24:18.030Z,65.80
2018-12-15T20:26:46.302Z,58.38
2018-12-15T20:29:14.630Z,70.95
2018-12-15T20:31:42.867Z,75.65
2018-12-15T20:34:11.115Z,60.90
2018-12-15T20:36:39.382Z,67.15
2018-12-15T20:39:08.114Z,64.47
2018-12-15T20:41:36.384Z,65.03
2018-12-15T20:44:04.638Z,68.57
2018-12-15T20:46:33.242Z,60.58
2018-12-15T20:49:01.620Z,60.88
2018-12-15T20:51:29.883Z,62.80
2018-12-15T20:53:58.115Z,63.58
2018-12-15T20:56:26.738Z,62.58
2018-12-15T20:58:54.953Z,52.08
2018-12-15T21:01:23.359Z,57.33
2018-12-15T21:03:51.733Z,54.45
2018-12-15T21:06:19.971Z,55.88
2018-12-15T21:08:48.163Z,54.35
2018-12-15T21:11:16.438Z,66.33
2018-12-15T21:13:44.704Z,67.65
2018-12-15T21:16:13.043Z,59.42
2018-12-15T21:18:41.276Z,61.08
2018-12-15T21:21:09.548Z,65.32
2018-12-15T21:23:37.736Z,55.05
2018-12-15T21:26:06.028Z,55.48
2018-12-15T21:28:35.292Z,63.63
2018-12-15T21:31:03.626Z,61.40
2018-12-15T21:33:31.957Z,63.48
2018-12-15T21:36:00.150Z,63.55
2018-12-15T21:38:28.337Z,64.87
2018-12-15T21:40:56.635Z,66.07
2018-12-15T21:43:24.922Z,64.35
2018-12-15T21:45:53.123Z,67.08
2018-12-15T21:48:21.393Z,65.37
2018-12-15T21:50:49.759Z,67.17
2018-12-15T21:53:17.983Z,62.25
2018-12-15T21:55:46.206Z,62.83
2018-12-15T21:58:14.431Z,63.55
2018-12-15T22:00:42.733Z,62.33
2018-12-15T22:03:10.878Z,64.25
2018-12-15T22:05:39.094Z,57.58
2018-12-15T22:08:07.432Z,57.17
2018-12-15T22:10:36.148Z,61.92
2018-12-15T22:13:04.553Z,58.58
2018-12-15T22:15:32.757Z,61.33
2018-12-15T22:18:00.988Z,58.40
2018-12-15T22:20:29.483Z,73.65
2018-12-15T22:22:57.703Z,64.80
2018-12-15T22:25:26.024Z,67.55
2018-12-15T22:27:54.254Z,64.72
2018-12-15T22:30:22.535Z,62.15
2018-12-15T22:32:50.710Z,71.42
2018-12-15T22:35:18.910Z,66.45
2018-12-15T22:37:47.188Z,60.03
2018-12-15T22:40:15.417Z,70.72
2018-12-15T22:42:43.789Z,58.13
2018-12-15T22:45:12.083Z,65.62
2018-12-15T22:47:40.266Z,62.33
2018-12-15T22:50:08.753Z,60.65
2018-12-15T22:52:36.999Z,57.75
2018-12-15T22:55:05.490Z,64.37
2018-12-15T22:57:33.758Z,53.78
2018-12-15T23:00:01.961Z,63.42
2018-12-15T23:02:30.173Z,62.43
2018-12-15T23:04:58.404Z,59.90
2018-12-15T23:07:26.615Z,61.63
2018-12-15T23:09:54.815Z,62.00
2018-12-15T23:12:23.138Z,55.92
2018-12-15T23:14:51.288Z,62.13
2018-12-15T23:17:19.684Z,57.40
2018-12-15T23:19:47.968Z,57.58
2018-12-15T23:22:16.515Z,63.45
2018-12-15T23:24:44.840Z,50.98
2018-12-15T23:27:13.095Z,56.00
2018-12-15T23:29:41.384Z,47.25
2018-12-15T23:32:09.637Z,48.08
2018-12-15T23:34:37.866Z,54.73
2018-12-15T23:37:06.165Z,46.20
2018-12-15T23:39:34.411Z,49.10
2018-12-15T23:42:02.605Z,42.88
2018-12-15T23:44:30.920Z,44.20
2018-12-15T23:46:59.121Z,46.28
2018-12-15T23:49:27.418Z,43.95
2018-12-15T23:51:55.809Z,47.20
2018-12-15T23:54:24.051Z,45.20
2018-12-15T23:56:52.276Z,41.05
2018-12-15T23:59:20.655Z,42.48
